Time;durP1;ratioP1;P1;durP2;ratioP2;P2;SDS_P1;SDS_P2;PMS_P1;PMS_P2;Temp;Humidity;BMP_temperature;BMP_pressure;BME280_temperature;BME280_humidity;BME280_pressure;Samples;Min_cycle;Max_cycle;Signal;HPM_P1;HPM_P2
2022/02/23 00:01:32;;;;;;;11.93;4.95;;;;;;;;;;5038518;28;20021;-87
2022/02/23 00:03:59;;;;;;;13.48;4.05;;;;;;;;;;5037823;28;20432;-88
2022/02/23 00:06:25;;;;;;;8.48;4.28;;;;;;;;;;5038631;28;20033;-88
2022/02/23 00:08:52;;;;;;;10.68;4.30;;;;;;;;;;5037671;28;20053;-88
2022/02/23 00:11:18;;;;;;;6.40;3.28;;;;;;;;;;5038910;28;20025;-88
2022/02/23 00:13:44;;;;;;;12.48;5.07;;;;;;;;;;5037384;28;20029;-87
2022/02/23 00:16:10;;;;;;;12.57;4.90;;;;;;;;;;5038335;28;20033;-88
2022/02/23 00:18:36;;;;;;;9.93;4.43;;;;;;;;;;5038562;28;20344;-87
2022/02/23 00:21:02;;;;;;;9.00;4.13;;;;;;;;;;5038696;28;20064;-88
2022/02/23 00:23:28;;;;;;;9.07;4.30;;;;;;;;;;5038396;28;20118;-89
2022/02/23 00:25:54;;;;;;;10.27;4.20;;;;;;;;;;5038455;28;20408;-89
2022/02/23 00:28:20;;;;;;;11.82;4.55;;;;;;;;;;5038451;28;20136;-88
2022/02/23 00:30:46;;;;;;;11.02;5.15;;;;;;;;;;5038572;28;20026;-89
2022/02/23 00:33:12;;;;;;;11.68;4.32;;;;;;;;;;5037555;28;20032;-89
2022/02/23 00:35:38;;;;;;;14.32;5.38;;;;;;;;;;5036977;28;20040;-88
2022/02/23 00:38:05;;;;;;;13.00;5.05;;;;;;;;;;5037186;28;20021;-89
2022/02/23 00:40:31;;;;;;;11.98;3.95;;;;;;;;;;5038044;28;20412;-89
2022/02/23 00:42:57;;;;;;;10.45;4.10;;;;;;;;;;5037388;28;20120;-89
2022/02/23 00:45:23;;;;;;;9.52;4.35;;;;;;;;;;5038124;28;20026;-89
2022/02/23 00:47:50;;;;;;;13.85;5.45;;;;;;;;;;5038144;28;20335;-89
2022/02/23 00:50:16;;;;;;;13.00;5.68;;;;;;;;;;5037082;28;20022;-89
2022/02/23 00:52:42;;;;;;;16.08;5.68;;;;;;;;;;5037666;28;20045;-89
2022/02/23 00:55:09;;;;;;;14.25;5.20;;;;;;;;;;5037856;28;20060;-89
2022/02/23 00:57:35;;;;;;;13.10;4.70;;;;;;;;;;5037165;28;20124;-89
2022/02/23 01:00:01;;;;;;;11.57;4.95;;;;;;;;;;5037740;28;20022;-89
2022/02/23 01:02:27;;;;;;;14.80;5.80;;;;;;;;;;5038168;28;20018;-89
2022/02/23 01:04:54;;;;;;;18.15;6.35;;;;;;;;;;5038003;28;20021;-90
2022/02/23 01:07:20;;;;;;;16.35;6.57;;;;;;;;;;5036784;28;20029;-89
2022/02/23 01:09:46;;;;;;;13.85;6.55;;;;;;;;;;5036866;28;20478;-90
2022/02/23 01:12:13;;;;;;;13.95;5.45;;;;;;;;;;5038156;28;20033;-88
2022/02/23 01:14:39;;;;;;;15.73;5.80;;;;;;;;;;5037436;28;20029;-88
2022/02/23 01:20:08;;;;;;;15.88;5.32;;;;;;;;;;5037495;28;20047;-88
2022/02/23 01:22:34;;;;;;;14.57;5.93;;;;;;;;;;5037822;28;20040;-89
2022/02/23 01:25:01;;;;;;;11.82;5.20;;;;;;;;;;5036858;28;20034;-89
2022/02/23 01:27:27;;;;;;;10.75;4.82;;;;;;;;;;5036790;28;20038;-88
2022/02/23 01:29:55;;;;;;;11.07;4.30;;;;;;;;;;5037344;28;20053;-89
2022/02/23 01:32:21;;;;;;;11.52;4.53;;;;;;;;;;5036831;28;20029;-87
2022/02/23 01:34:47;;;;;;;14.35;4.00;;;;;;;;;;5037513;28;20351;-88
2022/02/23 01:37:14;;;;;;;12.05;4.15;;;;;;;;;;5037483;28;20109;-88
2022/02/23 01:39:40;;;;;;;10.07;3.88;;;;;;;;;;5037117;28;20460;-88
2022/02/23 01:42:06;;;;;;;8.25;3.80;;;;;;;;;;5037713;28;20037;-88
2022/02/23 01:44:32;;;;;;;13.15;5.05;;;;;;;;;;5037196;28;20067;-89
2022/02/23 01:46:58;;;;;;;17.05;7.50;;;;;;;;;;5036488;28;20026;-88
2022/02/23 01:49:24;;;;;;;19.63;6.43;;;;;;;;;;5041361;28;20408;-89
2022/02/23 01:51:51;;;;;;;16.40;6.38;;;;;;;;;;5041006;28;20029;-89
2022/02/23 01:54:17;;;;;;;10.27;5.13;;;;;;;;;;5040439;28;20029;-88
2022/02/23 01:56:43;;;;;;;10.60;4.60;;;;;;;;;;5041092;28;20048;-88
2022/02/23 01:59:09;;;;;;;10.00;4.78;;;;;;;;;;5040916;28;20021;-88
2022/02/23 02:01:35;;;;;;;16.23;7.25;;;;;;;;;;5041207;28;20091;-89
2022/02/23 02:04:01;;;;;;;15.52;5.22;;;;;;;;;;5041081;28;20396;-86
2022/02/23 02:06:27;;;;;;;16.30;5.70;;;;;;;;;;5039975;28;20029;-89
2022/02/23 02:08:54;;;;;;;14.23;5.30;;;;;;;;;;5039920;28;20042;-88
2022/02/23 02:11:20;;;;;;;11.63;5.15;;;;;;;;;;5040792;28;20033;-90
2022/02/23 02:13:46;;;;;;;12.63;5.13;;;;;;;;;;5040965;28;20048;-89
2022/02/23 02:16:12;;;;;;;14.00;5.38;;;;;;;;;;5040683;28;20079;-89
2022/02/23 02:18:38;;;;;;;10.73;4.72;;;;;;;;;;5039810;28;20022;-89
2022/02/23 02:21:04;;;;;;;17.67;5.60;;;;;;;;;;5040922;28;20025;-90
2022/02/23 02:23:30;;;;;;;13.02;4.93;;;;;;;;;;5040547;28;20028;-89
2022/02/23 02:25:56;;;;;;;18.48;6.35;;;;;;;;;;5040606;28;20017;-89
2022/02/23 02:28:22;;;;;;;16.92;6.00;;;;;;;;;;5039736;28;20049;-90
2022/02/23 02:30:48;;;;;;;13.82;5.63;;;;;;;;;;5040592;28;20308;-90
2022/02/23 02:33:14;;;;;;;14.93;5.80;;;;;;;;;;5040823;28;20327;-89
2022/02/23 02:35:40;;;;;;;20.17;7.00;;;;;;;;;;5040605;28;20350;-90
2022/02/23 02:38:08;;;;;;;12.65;5.03;;;;;;;;;;5039552;28;20105;-90
2022/02/23 02:40:35;;;;;;;15.63;4.80;;;;;;;;;;5039337;28;20033;-87
2022/02/23 02:43:07;;;;;;;11.20;4.43;;;;;;;;;;5040402;28;20053;-87
2022/02/23 02:45:33;;;;;;;9.10;3.60;;;;;;;;;;5039424;28;20419;-88
2022/02/23 02:47:59;;;;;;;12.93;4.40;;;;;;;;;;5039049;28;20034;-87
2022/02/23 02:50:25;;;;;;;11.60;4.32;;;;;;;;;;5039192;28;20116;-87
2022/02/23 02:52:51;;;;;;;13.35;4.22;;;;;;;;;;5040061;28;20026;-88
2022/02/23 02:55:17;;;;;;;13.88;4.45;;;;;;;;;;5040235;28;20017;-88
2022/02/23 02:57:43;;;;;;;11.80;5.18;;;;;;;;;;5040308;28;20396;-89
2022/02/23 03:00:10;;;;;;;12.80;4.95;;;;;;;;;;5038862;28;20025;-88
2022/02/23 03:02:56;;;;;;;10.23;4.75;;;;;;;;;;5039207;28;20018;-89
2022/02/23 03:05:22;;;;;;;10.52;4.43;;;;;;;;;;5039983;28;20021;-89
2022/02/23 03:07:48;;;;;;;9.77;5.25;;;;;;;;;;5039945;28;20022;-89
2022/02/23 03:10:14;;;;;;;14.65;6.53;;;;;;;;;;5038858;28;20104;-88
2022/02/23 03:12:40;;;;;;;11.82;5.75;;;;;;;;;;5039801;28;20025;-89
2022/02/23 03:15:06;;;;;;;11.75;5.82;;;;;;;;;;5039085;28;20450;-88
2022/02/23 03:17:51;;;;;;;13.88;5.78;;;;;;;;;;5039958;28;20021;-89
2022/02/23 03:20:17;;;;;;;10.02;5.80;;;;;;;;;;5038634;28;20032;-89
2022/02/23 03:22:43;;;;;;;12.20;6.47;;;;;;;;;;5039525;28;20017;-88
2022/02/23 03:25:10;;;;;;;15.40;6.03;;;;;;;;;;5039606;28;20025;-89
2022/02/23 03:27:36;;;;;;;13.65;6.50;;;;;;;;;;5039910;28;20029;-89
2022/02/23 03:30:02;;;;;;;17.17;6.70;;;;;;;;;;5039791;28;20036;-89
2022/02/23 03:32:28;;;;;;;15.35;6.68;;;;;;;;;;5038383;28;20034;-89
2022/02/23 03:34:54;;;;;;;19.15;8.00;;;;;;;;;;5039291;28;20025;-88
2022/02/23 03:37:20;;;;;;;16.33;7.22;;;;;;;;;;5039183;28;20040;-89
2022/02/23 03:39:46;;;;;;;20.65;8.80;;;;;;;;;;5038356;28;20069;-89
2022/02/23 03:42:12;;;;;;;26.08;11.90;;;;;;;;;;5039563;28;20030;-88
2022/02/23 03:44:38;;;;;;;16.98;8.35;;;;;;;;;;5039535;28;20307;-89
2022/02/23 03:47:05;;;;;;;18.77;8.20;;;;;;;;;;5038217;28;20050;-88
2022/02/23 03:49:31;;;;;;;25.25;10.63;;;;;;;;;;5039162;28;20036;-88
2022/02/23 03:51:57;;;;;;;29.83;14.20;;;;;;;;;;5038314;28;20037;-88
2022/02/23 03:54:23;;;;;;;20.42;10.15;;;;;;;;;;5039044;28;20037;-89
2022/02/23 03:56:49;;;;;;;13.98;5.80;;;;;;;;;;5038964;28;20112;-88
2022/02/23 03:59:15;;;;;;;10.07;5.32;;;;;;;;;;5038229;28;20038;-89
2022/02/23 04:01:44;;;;;;;10.88;4.60;;;;;;;;;;5039119;28;20030;-89
2022/02/23 04:04:10;;;;;;;14.73;4.95;;;;;;;;;;5039029;28;20022;-89
2022/02/23 04:06:38;;;;;;;15.15;5.43;;;;;;;;;;5038640;28;20056;-89
2022/02/23 04:09:08;;;;;;;12.43;5.68;;;;;;;;;;5038736;28;20053;-89
2022/02/23 04:11:34;;;;;;;16.45;6.30;;;;;;;;;;5038895;28;20052;-88
2022/02/23 04:14:01;;;;;;;14.02;6.60;;;;;;;;;;5038938;28;20021;-87
2022/02/23 04:16:27;;;;;;;15.68;6.90;;;;;;;;;;5038631;28;20026;-88
2022/02/23 04:18:53;;;;;;;26.10;11.27;;;;;;;;;;5038600;28;20368;-88
2022/02/23 04:21:20;;;;;;;28.52;13.60;;;;;;;;;;5038672;28;20465;-88
2022/02/23 04:23:46;;;;;;;24.52;10.93;;;;;;;;;;5037859;28;20129;-88
2022/02/23 04:26:13;;;;;;;18.27;8.63;;;;;;;;;;5038303;28;20510;-88
2022/02/23 04:28:39;;;;;;;14.95;7.03;;;;;;;;;;5038282;28;20032;-89
2022/02/23 04:31:05;;;;;;;12.77;6.15;;;;;;;;;;5038331;28;20063;-89
2022/02/23 04:33:31;;;;;;;18.75;7.07;;;;;;;;;;5038340;28;20025;-88
2022/02/23 04:35:57;;;;;;;19.80;8.15;;;;;;;;;;5038216;28;20351;-88
2022/02/23 04:38:23;;;;;;;15.40;6.68;;;;;;;;;;5038656;28;20029;-88
2022/02/23 04:40:50;;;;;;;15.93;6.38;;;;;;;;;;5038149;28;20030;-89
2022/02/23 04:43:16;;;;;;;15.35;6.63;;;;;;;;;;5038060;28;20444;-89
2022/02/23 04:45:42;;;;;;;14.15;6.70;;;;;;;;;;5038026;28;20030;-90
2022/02/23 04:48:08;;;;;;;14.52;6.20;;;;;;;;;;5037084;28;20049;-90
2022/02/23 04:50:35;;;;;;;12.90;5.30;;;;;;;;;;5038134;28;20305;-87
2022/02/23 04:53:01;;;;;;;15.77;6.70;;;;;;;;;;5038154;28;20075;-88
2022/02/23 04:55:27;;;;;;;49.70;18.73;;;;;;;;;;5037719;28;20025;-88
2022/02/23 04:57:53;;;;;;;69.90;25.35;;;;;;;;;;5037825;28;20060;-87
2022/02/23 05:00:19;;;;;;;78.03;27.60;;;;;;;;;;5037766;28;20029;-87
2022/02/23 05:02:45;;;;;;;65.68;26.35;;;;;;;;;;5036974;28;20060;-87
2022/02/23 05:05:11;;;;;;;67.28;23.83;;;;;;;;;;5037881;28;20017;-87
2022/02/23 05:07:37;;;;;;;56.80;23.65;;;;;;;;;;5038029;28;20018;-87
2022/02/23 05:10:04;;;;;;;52.92;21.63;;;;;;;;;;5037569;28;20073;-90
2022/02/23 05:12:31;;;;;;;33.65;14.15;;;;;;;;;;5036718;28;20036;-89
2022/02/23 05:14:57;;;;;;;21.77;9.18;;;;;;;;;;5037028;28;20037;-88
2022/02/23 05:17:24;;;;;;;19.75;8.77;;;;;;;;;;5036399;28;20072;-89
2022/02/23 05:19:50;;;;;;;18.17;8.85;;;;;;;;;;5020611;28;20065;-89
2022/02/23 05:22:16;;;;;;;23.25;8.98;;;;;;;;;;5017735;28;20026;-88
2022/02/23 05:24:42;;;;;;;23.63;10.02;;;;;;;;;;5018591;28;20026;-89
2022/02/23 05:27:08;;;;;;;23.55;9.90;;;;;;;;;;5017550;28;20121;-88
2022/02/23 05:29:34;;;;;;;31.50;11.68;;;;;;;;;;5017988;28;20049;-89
2022/02/23 05:32:01;;;;;;;33.45;12.80;;;;;;;;;;5017892;28;20109;-89
2022/02/23 05:34:27;;;;;;;29.90;13.80;;;;;;;;;;5018882;28;20371;-88
2022/02/23 05:36:53;;;;;;;34.88;15.38;;;;;;;;;;5016945;28;20042;-89
2022/02/23 05:39:21;;;;;;;30.02;14.30;;;;;;;;;;5017501;28;20037;-89
2022/02/23 05:41:47;;;;;;;33.80;14.80;;;;;;;;;;5017697;28;20328;-89
2022/02/23 05:44:13;;;;;;;29.38;14.80;;;;;;;;;;5017315;28;20115;-88
2022/02/23 05:46:39;;;;;;;24.92;10.98;;;;;;;;;;5017758;28;20025;-88
2022/02/23 05:49:05;;;;;;;18.52;8.18;;;;;;;;;;5017747;28;20113;-87
2022/02/23 05:51:32;;;;;;;24.10;10.52;;;;;;;;;;5017437;28;20026;-89
2022/02/23 05:53:59;;;;;;;20.38;10.32;;;;;;;;;;5021383;28;20080;-88
2022/02/23 05:56:26;;;;;;;24.42;10.75;;;;;;;;;;5017650;28;20053;-86
2022/02/23 05:58:52;;;;;;;19.88;9.43;;;;;;;;;;5024716;28;20076;-87
2022/02/23 06:01:18;;;;;;;17.42;8.38;;;;;;;;;;5036251;28;20029;-88
2022/02/23 06:03:44;;;;;;;16.40;8.13;;;;;;;;;;5037208;28;20041;-87
2022/02/23 06:06:11;;;;;;;18.23;8.98;;;;;;;;;;5036462;28;20022;-88
2022/02/23 06:08:37;;;;;;;32.53;13.75;;;;;;;;;;5037213;28;20045;-87
2022/02/23 06:11:03;;;;;;;22.00;10.50;;;;;;;;;;5037073;28;20022;-87
2022/02/23 06:13:29;;;;;;;19.40;9.70;;;;;;;;;;5036764;28;20028;-88
2022/02/23 06:15:56;;;;;;;17.15;9.10;;;;;;;;;;5036879;28;20426;-87
2022/02/23 06:18:22;;;;;;;16.65;8.90;;;;;;;;;;5035826;28;20040;-87
2022/02/23 06:20:48;;;;;;;20.83;9.20;;;;;;;;;;5036985;28;20032;-87
2022/02/23 06:23:14;;;;;;;23.05;8.70;;;;;;;;;;5037068;28;20021;-86
2022/02/23 06:25:41;;;;;;;22.52;9.27;;;;;;;;;;5037058;28;20029;-87
2022/02/23 06:28:07;;;;;;;25.05;11.68;;;;;;;;;;5036984;28;20026;-87
2022/02/23 06:30:33;;;;;;;24.20;11.10;;;;;;;;;;5035793;28;20458;-87
2022/02/23 06:32:59;;;;;;;22.08;10.00;;;;;;;;;;5036237;28;20132;-87
2022/02/23 06:35:27;;;;;;;22.55;10.30;;;;;;;;;;5038387;28;20038;-87
2022/02/23 06:37:53;;;;;;;21.58;10.30;;;;;;;;;;5040420;28;20060;-87
2022/02/23 06:40:20;;;;;;;25.38;11.75;;;;;;;;;;5040368;28;20029;-87
2022/02/23 06:42:46;;;;;;;46.58;19.58;;;;;;;;;;5040302;28;20021;-87
2022/02/23 06:45:13;;;;;;;44.97;16.73;;;;;;;;;;5040596;28;20101;-87
2022/02/23 06:47:39;;;;;;;28.02;12.57;;;;;;;;;;5040281;28;20030;-87
2022/02/23 06:50:06;;;;;;;37.60;20.40;;;;;;;;;;5040359;28;20025;-88
2022/02/23 06:52:32;;;;;;;52.08;27.17;;;;;;;;;;5040184;28;20029;-86
2022/02/23 06:54:58;;;;;;;45.65;23.48;;;;;;;;;;5040184;28;20107;-87
2022/02/23 06:57:24;;;;;;;42.50;22.17;;;;;;;;;;5039809;28;20033;-86
2022/02/23 06:59:52;;;;;;;52.30;26.55;;;;;;;;;;5039244;28;20037;-87
2022/02/23 07:02:18;;;;;;;62.78;28.50;;;;;;;;;;5039930;28;20071;-87
2022/02/23 07:04:44;;;;;;;57.20;26.13;;;;;;;;;;5039830;28;20021;-87
2022/02/23 07:07:10;;;;;;;63.55;32.70;;;;;;;;;;5038851;28;20026;-87
2022/02/23 07:09:36;;;;;;;54.22;27.92;;;;;;;;;;5039820;28;20061;-87
2022/02/23 07:12:04;;;;;;;46.80;26.00;;;;;;;;;;5039730;28;20081;-86
2022/02/23 07:14:30;;;;;;;29.98;16.17;;;;;;;;;;5039634;28;20029;-87
2022/02/23 07:16:56;;;;;;;29.70;14.32;;;;;;;;;;5039879;28;20017;-86
2022/02/23 07:19:24;;;;;;;53.45;23.23;;;;;;;;;;5039897;28;20022;-87
2022/02/23 07:21:50;;;;;;;53.13;22.95;;;;;;;;;;5039720;28;20100;-87
2022/02/23 07:24:18;;;;;;;50.78;23.17;;;;;;;;;;5039622;28;20396;-87
2022/02/23 07:26:44;;;;;;;62.08;31.10;;;;;;;;;;5039637;28;20033;-87
2022/02/23 07:29:11;;;;;;;56.72;29.67;;;;;;;;;;5039362;28;20037;-88
2022/02/23 07:31:37;;;;;;;56.42;27.10;;;;;;;;;;5039584;28;20029;-87
2022/02/23 07:34:05;;;;;;;35.95;18.13;;;;;;;;;;5039558;28;20446;-87
2022/02/23 07:36:31;;;;;;;39.75;18.92;;;;;;;;;;5039306;28;20040;-88
2022/02/23 07:38:57;;;;;;;47.50;22.83;;;;;;;;;;5038975;28;20033;-87
2022/02/23 07:41:25;;;;;;;34.35;16.33;;;;;;;;;;5039295;28;20080;-88
2022/02/23 07:43:51;;;;;;;31.48;15.98;;;;;;;;;;5039153;28;20072;-88
2022/02/23 07:46:18;;;;;;;35.95;17.65;;;;;;;;;;5038928;28;20021;-87
2022/02/23 07:48:46;;;;;;;54.08;25.20;;;;;;;;;;5038423;28;20060;-87
2022/02/23 07:51:13;;;;;;;45.25;23.33;;;;;;;;;;5039083;28;20035;-87
2022/02/23 07:53:39;;;;;;;52.97;23.33;;;;;;;;;;5039018;28;20028;-87
2022/02/23 07:56:05;;;;;;;33.08;14.18;;;;;;;;;;5038080;28;20426;-87
2022/02/23 07:58:31;;;;;;;18.70;9.40;;;;;;;;;;5038754;28;20017;-87
2022/02/23 08:00:57;;;;;;;18.08;7.85;;;;;;;;;;5038905;28;20049;-87
2022/02/23 08:03:24;;;;;;;26.13;9.80;;;;;;;;;;5038912;28;20063;-87
2022/02/23 08:05:51;;;;;;;22.48;10.93;;;;;;;;;;5038904;28;20029;-87
2022/02/23 08:08:19;;;;;;;27.60;12.05;;;;;;;;;;5038715;28;20035;-87
2022/02/23 08:10:45;;;;;;;22.25;11.15;;;;;;;;;;5038714;28;20419;-87
2022/02/23 08:13:11;;;;;;;17.55;9.38;;;;;;;;;;5037701;28;20029;-87
2022/02/23 08:21:12;;;;;;;22.95;10.02;;;;;;;;;;5038499;28;20141;-86
2022/02/23 08:23:38;;;;;;;17.27;7.55;;;;;;;;;;5037868;28;20061;-87
2022/02/23 08:26:04;;;;;;;16.92;7.85;;;;;;;;;;5038381;28;20029;-87
2022/02/23 08:28:31;;;;;;;17.13;6.78;;;;;;;;;;5038655;28;20026;-86
2022/02/23 08:30:57;;;;;;;14.50;6.45;;;;;;;;;;5038259;28;20438;-87
2022/02/23 08:33:23;;;;;;;14.23;6.65;;;;;;;;;;5037418;28;20037;-86
2022/02/23 08:35:49;;;;;;;11.35;4.53;;;;;;;;;;5038196;28;20140;-87
2022/02/23 08:38:15;;;;;;;12.98;5.05;;;;;;;;;;5038153;28;20038;-87
2022/02/23 08:40:42;;;;;;;16.77;5.13;;;;;;;;;;5037815;28;20057;-86
2022/02/23 08:43:08;;;;;;;9.38;4.20;;;;;;;;;;5038386;28;20021;-87
2022/02/23 08:45:34;;;;;;;13.02;5.18;;;;;;;;;;5037936;28;20025;-86
2022/02/23 08:48:01;;;;;;;13.20;5.03;;;;;;;;;;5036701;28;20415;-86
2022/02/23 08:50:28;;;;;;;17.30;7.63;;;;;;;;;;5038093;28;20101;-86
2022/02/23 08:52:54;;;;;;;19.08;7.88;;;;;;;;;;5037838;28;20469;-87
2022/02/23 08:55:20;;;;;;;17.83;7.85;;;;;;;;;;5037888;28;20396;-86
2022/02/23 08:57:46;;;;;;;13.88;5.20;;;;;;;;;;5037183;28;20033;-87
2022/02/23 09:00:13;;;;;;;17.02;7.03;;;;;;;;;;5037896;28;20025;-86
2022/02/23 09:02:39;;;;;;;15.18;6.60;;;;;;;;;;5037230;28;20028;-87
2022/02/23 09:05:05;;;;;;;14.40;7.75;;;;;;;;;;5037879;28;20121;-87
2022/02/23 09:07:31;;;;;;;20.15;7.55;;;;;;;;;;5037047;28;20040;-87
2022/02/23 09:09:57;;;;;;;19.42;9.05;;;;;;;;;;5037607;28;20348;-87
2022/02/23 09:12:24;;;;;;;22.52;10.57;;;;;;;;;;5037591;28;20407;-87
2022/02/23 09:14:53;;;;;;;24.73;10.05;;;;;;;;;;5037543;28;20411;-86
2022/02/23 09:17:19;;;;;;;18.65;8.70;;;;;;;;;;5037577;28;20036;-86
2022/02/23 09:19:45;;;;;;;27.58;11.20;;;;;;;;;;5037463;28;20435;-87
2022/02/23 09:22:11;;;;;;;34.05;13.23;;;;;;;;;;5037427;28;20116;-87
2022/02/23 09:24:37;;;;;;;31.00;12.18;;;;;;;;;;5036892;28;20091;-87
2022/02/23 09:27:03;;;;;;;24.95;9.75;;;;;;;;;;5037625;28;20029;-86
2022/02/23 09:29:34;;;;;;;21.73;9.18;;;;;;;;;;5037521;28;20426;-86
2022/02/23 09:32:00;;;;;;;29.48;12.25;;;;;;;;;;5037438;28;20112;-86
2022/02/23 09:34:26;;;;;;;21.30;8.80;;;;;;;;;;5037559;28;20021;-86
2022/02/23 09:36:52;;;;;;;29.58;14.48;;;;;;;;;;5037029;28;20025;-86
2022/02/23 09:39:19;;;;;;;19.52;9.48;;;;;;;;;;5037188;28;20305;-86
2022/02/23 09:41:46;;;;;;;19.20;9.23;;;;;;;;;;5037465;28;20052;-86
2022/02/23 09:44:16;;;;;;;21.27;9.68;;;;;;;;;;5036401;28;20116;-86
2022/02/23 09:46:42;;;;;;;20.88;10.27;;;;;;;;;;5037390;28;20045;-87
2022/02/23 09:49:08;;;;;;;23.55;9.90;;;;;;;;;;5037309;28;20034;-86
2022/02/23 09:51:34;;;;;;;26.02;9.50;;;;;;;;;;5037274;28;20025;-86
2022/02/23 09:54:00;;;;;;;16.63;8.45;;;;;;;;;;5037424;28;20112;-87
2022/02/23 09:56:26;;;;;;;18.35;8.68;;;;;;;;;;5036346;28;20358;-87
2022/02/23 09:58:56;;;;;;;25.33;9.23;;;;;;;;;;5036871;28;20327;-86
2022/02/23 10:01:27;;;;;;;23.95;9.50;;;;;;;;;;5037132;28;20120;-86
2022/02/23 10:03:53;;;;;;;21.40;10.30;;;;;;;;;;5036219;28;20025;-86
2022/02/23 10:06:20;;;;;;;22.33;9.88;;;;;;;;;;5037010;28;20475;-86
2022/02/23 10:08:46;;;;;;;22.63;9.02;;;;;;;;;;5038325;28;20041;-86
2022/02/23 10:11:19;;;;;;;18.58;7.90;;;;;;;;;;5041100;28;20021;-86
2022/02/23 10:13:49;;;;;;;18.23;8.93;;;;;;;;;;5040007;28;20320;-86
2022/02/23 10:16:15;;;;;;;17.05;8.32;;;;;;;;;;5039890;28;20396;-86
2022/02/23 10:18:41;;;;;;;15.45;5.88;;;;;;;;;;5039842;28;20018;-86
2022/02/23 10:21:07;;;;;;;14.50;4.88;;;;;;;;;;5040701;28;20116;-86
2022/02/23 10:23:33;;;;;;;18.13;5.63;;;;;;;;;;5040868;28;20025;-88
2022/02/23 10:26:02;;;;;;;20.75;7.45;;;;;;;;;;5040593;28;20033;-87
2022/02/23 10:28:29;;;;;;;23.00;8.98;;;;;;;;;;5040904;28;20041;-84
2022/02/23 10:30:59;;;;;;;21.95;10.95;;;;;;;;;;5040543;28;20057;-86
2022/02/23 10:33:27;;;;;;;69.03;10.95;;;;;;;;;;5039785;28;20033;-87
2022/02/23 10:35:57;;;;;;;24.58;11.90;;;;;;;;;;5040395;28;20049;-87
2022/02/23 10:38:24;;;;;;;15.88;8.30;;;;;;;;;;5039706;28;20068;-86
2022/02/23 10:40:51;;;;;;;17.20;7.78;;;;;;;;;;5040179;28;20105;-86
2022/02/23 10:43:31;;;;;;;16.70;5.78;;;;;;;;;;5040429;28;20029;-86
2022/02/23 10:46:02;;;;;;;15.38;6.78;;;;;;;;;;5040396;28;20021;-87
2022/02/23 10:48:29;;;;;;;19.02;6.50;;;;;;;;;;5039363;28;20021;-87
2022/02/23 10:50:55;;;;;;;15.55;5.47;;;;;;;;;;5039352;28;20026;-86
2022/02/23 10:53:28;;;;;;;17.65;6.95;;;;;;;;;;5040246;28;20032;-86
2022/02/23 10:55:54;;;;;;;13.40;4.35;;;;;;;;;;5040293;28;20101;-86
2022/02/23 10:58:20;;;;;;;11.73;3.72;;;;;;;;;;5039950;28;20072;-87
2022/02/23 11:00:50;;;;;;;7.65;2.92;;;;;;;;;;5038963;28;20037;-87
2022/02/23 11:03:20;;;;;;;19.45;7.75;;;;;;;;;;5039688;28;20430;-87
2022/02/23 11:05:51;;;;;;;13.20;5.05;;;;;;;;;;5040161;28;20021;-87
2022/02/23 11:08:17;;;;;;;30.17;10.35;;;;;;;;;;5040288;28;20052;-87
2022/02/23 11:10:44;;;;;;;39.58;14.55;;;;;;;;;;5039117;28;20084;-87
2022/02/23 11:13:17;;;;;;;25.80;11.10;;;;;;;;;;5039843;28;20026;-86
2022/02/23 11:15:45;;;;;;;22.27;10.23;;;;;;;;;;5039490;28;20032;-87
2022/02/23 11:18:13;;;;;;;25.15;10.40;;;;;;;;;;5038981;28;20033;-85
2022/02/23 11:20:40;;;;;;;23.20;8.45;;;;;;;;;;5038778;28;20035;-86
2022/02/23 11:23:06;;;;;;;17.73;7.10;;;;;;;;;;5039595;28;20021;-86
2022/02/23 11:25:34;;;;;;;16.60;6.13;;;;;;;;;;5038808;28;20095;-87
2022/02/23 11:28:09;;;;;;;15.77;6.88;;;;;;;;;;5038796;28;20041;-87
2022/02/23 11:30:36;;;;;;;31.67;15.32;;;;;;;;;;5039380;28;20033;-87
2022/02/23 11:33:03;;;;;;;17.17;8.50;;;;;;;;;;5038407;28;20036;-88
2022/02/23 11:35:45;;;;;;;19.48;7.53;;;;;;;;;;5038197;28;20036;-87
2022/02/23 11:38:15;;;;;;;29.55;11.77;;;;;;;;;;5039351;28;20063;-86
2022/02/23 11:40:51;;;;;;;23.27;11.60;;;;;;;;;;5039031;28;20034;-87
2022/02/23 11:43:24;;;;;;;18.75;7.93;;;;;;;;;;5038378;28;20112;-86
2022/02/23 11:45:57;;;;;;;20.30;9.25;;;;;;;;;;5038642;28;20035;-87
2022/02/23 11:48:23;;;;;;;17.63;8.52;;;;;;;;;;5039363;28;20083;-86
2022/02/23 11:51:03;;;;;;;15.15;7.40;;;;;;;;;;5039292;28;20030;-86
2022/02/23 11:53:39;;;;;;;16.88;7.85;;;;;;;;;;5038951;28;20033;-86
2022/02/23 11:56:12;;;;;;;20.10;8.40;;;;;;;;;;5039133;28;20025;-86
2022/02/23 11:58:48;;;;;;;14.70;7.72;;;;;;;;;;5039209;28;20087;-85
2022/02/23 12:01:14;;;;;;;16.98;7.38;;;;;;;;;;5038769;28;20029;-86
2022/02/23 12:03:44;;;;;;;18.33;8.25;;;;;;;;;;5038757;28;20100;-85
2022/02/23 12:06:10;;;;;;;21.83;9.18;;;;;;;;;;5038301;28;20038;-85
2022/02/23 12:08:40;;;;;;;18.33;9.52;;;;;;;;;;5037408;28;20051;-86
2022/02/23 12:11:06;;;;;;;22.25;8.98;;;;;;;;;;5038975;28;20029;-86
2022/02/23 12:13:42;;;;;;;20.67;8.07;;;;;;;;;;5038006;28;20037;-86
2022/02/23 12:16:24;;;;;;;15.30;5.82;;;;;;;;;;5038288;28;20068;-85
2022/02/23 12:18:51;;;;;;;17.35;8.80;;;;;;;;;;5038161;28;20029;-86
2022/02/23 12:21:17;;;;;;;11.32;5.13;;;;;;;;;;5037701;28;20033;-85
2022/02/23 12:23:45;;;;;;;16.98;7.32;;;;;;;;;;5037921;28;20025;-86
2022/02/23 12:26:16;;;;;;;17.17;5.60;;;;;;;;;;5038624;28;20408;-86
2022/02/23 12:28:42;;;;;;;13.77;5.22;;;;;;;;;;5038218;28;20029;-86
2022/02/23 12:31:08;;;;;;;18.63;7.47;;;;;;;;;;5038191;28;20107;-86
2022/02/23 12:33:35;;;;;;;17.20;7.20;;;;;;;;;;5038096;28;20026;-86
2022/02/23 12:36:03;;;;;;;14.55;5.88;;;;;;;;;;5038134;28;20030;-86
2022/02/23 12:38:31;;;;;;;13.77;5.32;;;;;;;;;;5037244;28;20065;-86
2022/02/23 12:40:58;;;;;;;13.88;5.40;;;;;;;;;;5038157;28;20053;-86
2022/02/23 12:43:24;;;;;;;19.45;8.05;;;;;;;;;;5038193;28;20132;-86
2022/02/23 12:45:54;;;;;;;12.98;5.20;;;;;;;;;;5038234;28;20017;-86
2022/02/23 12:48:33;;;;;;;9.32;4.00;;;;;;;;;;5037865;28;20022;-86
2022/02/23 12:51:01;;;;;;;9.15;3.53;;;;;;;;;;5038375;28;20029;-86
2022/02/23 12:53:34;;;;;;;11.45;4.55;;;;;;;;;;5036977;28;20025;-87
2022/02/23 12:56:20;;;;;;;13.13;4.63;;;;;;;;;;5036576;28;20029;-86
2022/02/23 12:58:47;;;;;;;12.00;5.07;;;;;;;;;;5038502;28;20037;-86
2022/02/23 13:01:18;;;;;;;9.73;4.43;;;;;;;;;;5056060;28;20501;-86
2022/02/23 13:03:44;;;;;;;15.82;5.97;;;;;;;;;;5056148;28;20108;-87
2022/02/23 13:06:10;;;;;;;15.75;4.90;;;;;;;;;;5039309;28;20033;-86
2022/02/23 13:08:36;;;;;;;12.95;5.18;;;;;;;;;;5055778;28;20087;-86
2022/02/23 13:11:05;;;;;;;10.80;3.92;;;;;;;;;;5055805;28;20053;-86
2022/02/23 13:13:35;;;;;;;13.20;3.92;;;;;;;;;;5055908;28;20363;-85
2022/02/23 13:16:01;;;;;;;13.15;5.60;;;;;;;;;;5055853;28;20033;-86
2022/02/23 13:18:27;;;;;;;12.30;5.18;;;;;;;;;;5055855;28;20051;-86
2022/02/23 13:21:07;;;;;;;14.48;6.40;;;;;;;;;;5055408;28;20458;-86
2022/02/23 13:23:49;;;;;;;13.10;5.00;;;;;;;;;;5055891;28;20033;-86
2022/02/23 13:26:15;;;;;;;9.50;3.53;;;;;;;;;;5038973;28;20123;-86
2022/02/23 13:28:57;;;;;;;7.88;3.63;;;;;;;;;;5038927;28;20035;-86
2022/02/23 13:31:43;;;;;;;12.05;4.65;;;;;;;;;;5055752;28;20029;-86
2022/02/23 13:34:24;;;;;;;11.32;4.00;;;;;;;;;;5055547;28;20033;-86
2022/02/23 13:36:51;;;;;;;11.02;4.90;;;;;;;;;;5038834;28;20039;-86
2022/02/23 13:39:19;;;;;;;9.73;3.65;;;;;;;;;;5036557;28;20065;-86
2022/02/23 13:41:51;;;;;;;7.40;3.05;;;;;;;;;;5037513;28;20072;-86
2022/02/23 13:44:18;;;;;;;4.13;1.50;;;;;;;;;;5039725;28;20068;-86
2022/02/23 13:46:44;;;;;;;2.72;1.90;;;;;;;;;;5041038;28;20025;-86
2022/02/23 13:49:10;;;;;;;3.60;1.92;;;;;;;;;;5040880;28;20026;-86
2022/02/23 13:51:41;;;;;;;5.00;2.10;;;;;;;;;;5041531;28;20416;-86
2022/02/23 13:54:08;;;;;;;3.00;1.75;;;;;;;;;;5020342;28;20069;-86
2022/02/23 13:56:34;;;;;;;4.75;1.90;;;;;;;;;;5021271;28;20429;-85
2022/02/23 13:59:01;;;;;;;3.47;1.88;;;;;;;;;;5021500;28;20029;-85
2022/02/23 14:01:28;;;;;;;4.90;3.03;;;;;;;;;;5021407;28;20018;-85
2022/02/23 14:03:56;;;;;;;7.13;2.38;;;;;;;;;;5021381;28;20046;-86
2022/02/23 14:06:24;;;;;;;7.10;4.65;;;;;;;;;;5021052;28;20458;-86
2022/02/23 14:09:00;;;;;;;16.13;9.68;;;;;;;;;;5021233;28;20045;-85
2022/02/23 14:11:26;;;;;;;11.48;4.28;;;;;;;;;;5035892;28;20068;-86
2022/02/23 14:13:58;;;;;;;7.20;3.00;;;;;;;;;;5041023;28;20364;-85
2022/02/23 14:16:41;;;;;;;10.65;5.43;;;;;;;;;;5039610;28;20040;-86
2022/02/23 14:19:19;;;;;;;12.18;4.60;;;;;;;;;;5040732;28;20343;-86
2022/02/23 14:21:50;;;;;;;12.82;2.20;;;;;;;;;;5040898;28;20072;-87
2022/02/23 14:24:19;;;;;;;12.40;1.80;;;;;;;;;;5040729;28;20415;-86
2022/02/23 14:26:55;;;;;;;13.63;2.22;;;;;;;;;;5040537;28;20026;-86
2022/02/23 14:29:25;;;;;;;9.85;1.80;;;;;;;;;;5040708;28;20044;-86
2022/02/23 14:31:54;;;;;;;12.68;2.83;;;;;;;;;;5039480;28;20060;-92
2022/02/23 14:34:25;;;;;;;11.07;2.03;;;;;;;;;;5040140;28;20075;-85
2022/02/23 14:36:52;;;;;;;12.45;2.13;;;;;;;;;;5040701;28;20025;-83
2022/02/23 14:39:18;;;;;;;11.75;2.22;;;;;;;;;;5039892;28;20128;-83